sensor_id;sensor_type;location;lat;lon;timestamp;temperature;humidity
1391;DHT22;690;51.454;7.194;2023-02-27T00:00:18;2.40;99.90
1391;DHT22;690;51.454;7.194;2023-02-27T00:02:47;2.40;99.90
1391;DHT22;690;51.454;7.194;2023-02-27T00:05:15;2.40;99.90
1391;DHT22;690;51.454;7.194;2023-02-27T00:07:42;2.40;99.90
1391;DHT22;690;51.454;7.194;2023-02-27T00:10:10;2.40;99.90
1391;DHT22;690;51.454;7.194;2023-02-27T00:12:44;2.40;99.90
1391;DHT22;690;51.454;7.194;2023-02-27T00:15:13;2.40;99.90
1391;DHT22;690;51.454;7.194;2023-02-27T00:17:41;2.40;99.90
1391;DHT22;690;51.454;7.194;2023-02-27T00:20:11;2.40;99.90
1391;DHT22;690;51.454;7.194;2023-02-27T00:22:38;2.30;99.90
1391;DHT22;690;51.454;7.194;2023-02-27T00:25:05;2.30;99.90
1391;DHT22;690;51.454;7.194;2023-02-27T00:27:33;2.30;99.90
1391;DHT22;690;51.454;7.194;2023-02-27T00:30:01;2.30;99.90
1391;DHT22;690;51.454;7.194;2023-02-27T00:32:29;2.20;99.90
1391;DHT22;690;51.454;7.194;2023-02-27T00:34:57;2.20;99.90
1391;DHT22;690;51.454;7.194;2023-02-27T00:37:24;2.20;99.90
1391;DHT22;690;51.454;7.194;2023-02-27T00:39:51;2.20;99.90
1391;DHT22;690;51.454;7.194;2023-02-27T00:42:17;2.20;99.90
1391;DHT22;690;51.454;7.194;2023-02-27T00:44:44;2.20;99.90
1391;DHT22;690;51.454;7.194;2023-02-27T00:47:11;2.10;99.90
1391;DHT22;690;51.454;7.194;2023-02-27T00:49:38;2.10;99.90
1391;DHT22;690;51.454;7.194;2023-02-27T00:52:06;2.10;99.90
1391;DHT22;690;51.454;7.194;2023-02-27T00:54:34;2.10;99.90
1391;DHT22;690;51.454;7.194;2023-02-27T00:57:01;2.10;99.90
1391;DHT22;690;51.454;7.194;2023-02-27T00:59:28;2.00;99.90
1391;DHT22;690;51.454;7.194;2023-02-27T01:01:55;2.00;99.90
1391;DHT22;690;51.454;7.194;2023-02-27T01:04:22;2.00;99.90
1391;DHT22;690;51.454;7.194;2023-02-27T01:06:48;2.00;99.90
1391;DHT22;690;51.454;7.194;2023-02-27T01:09:17;1.90;99.90
1391;DHT22;690;51.454;7.194;2023-02-27T01:11:43;1.90;99.90
1391;DHT22;690;51.454;7.194;2023-02-27T01:14:10;1.90;99.90
1391;DHT22;690;51.454;7.194;2023-02-27T01:16:37;1.90;99.90
1391;DHT22;690;51.454;7.194;2023-02-27T01:19:04;1.90;99.90
1391;DHT22;690;51.454;7.194;2023-02-27T01:21:31;1.90;99.90
1391;DHT22;690;51.454;7.194;2023-02-27T01:23:58;1.90;99.90
1391;DHT22;690;51.454;7.194;2023-02-27T01:26:26;1.90;99.90
1391;DHT22;690;51.454;7.194;2023-02-27T01:28:53;1.80;99.90
1391;DHT22;690;51.454;7.194;2023-02-27T01:31:20;1.80;99.90
1391;DHT22;690;51.454;7.194;2023-02-27T01:33:47;1.80;99.90
1391;DHT22;690;51.454;7.194;2023-02-27T01:36:14;1.80;99.90
1391;DHT22;690;51.454;7.194;2023-02-27T01:38:41;1.80;99.90
1391;DHT22;690;51.454;7.194;2023-02-27T01:41:08;1.80;99.90
1391;DHT22;690;51.454;7.194;2023-02-27T01:43:54;1.80;99.90
1391;DHT22;690;51.454;7.194;2023-02-27T01:46:22;1.70;99.90
1391;DHT22;690;51.454;7.194;2023-02-27T01:48:50;1.70;99.90
1391;DHT22;690;51.454;7.194;2023-02-27T01:51:21;1.70;99.90
1391;DHT22;690;51.454;7.194;2023-02-27T01:53:50;1.70;99.90
1391;DHT22;690;51.454;7.194;2023-02-27T01:56:19;1.70;99.90
1391;DHT22;690;51.454;7.194;2023-02-27T01:58:48;1.70;99.90
1391;DHT22;690;51.454;7.194;2023-02-27T02:01:16;1.70;99.90
1391;DHT22;690;51.454;7.194;2023-02-27T02:03:49;1.70;99.90
1391;DHT22;690;51.454;7.194;2023-02-27T02:06:19;1.70;99.90
1391;DHT22;690;51.454;7.194;2023-02-27T02:08:47;1.70;99.90
1391;DHT22;690;51.454;7.194;2023-02-27T02:11:16;1.60;99.90
1391;DHT22;690;51.454;7.194;2023-02-27T02:13:43;1.60;99.90
1391;DHT22;690;51.454;7.194;2023-02-27T02:16:24;1.60;99.90
1391;DHT22;690;51.454;7.194;2023-02-27T02:18:58;1.60;99.90
1391;DHT22;690;51.454;7.194;2023-02-27T02:21:50;1.60;99.90
1391;DHT22;690;51.454;7.194;2023-02-27T02:24:57;1.60;99.90
1391;DHT22;690;51.454;7.194;2023-02-27T02:27:41;1.60;99.90
1391;DHT22;690;51.454;7.194;2023-02-27T02:30:41;1.50;99.90
1391;DHT22;690;51.454;7.194;2023-02-27T02:33:40;1.50;99.90
1391;DHT22;690;51.454;7.194;2023-02-27T02:36:30;1.50;99.90
1391;DHT22;690;51.454;7.194;2023-02-27T02:39:19;1.50;99.90
1391;DHT22;690;51.454;7.194;2023-02-27T02:41:58;1.50;99.90
1391;DHT22;690;51.454;7.194;2023-02-27T02:44:33;1.50;99.90
1391;DHT22;690;51.454;7.194;2023-02-27T02:47:04;1.50;99.90
1391;DHT22;690;51.454;7.194;2023-02-27T02:49:41;1.50;99.90
1391;DHT22;690;51.454;7.194;2023-02-27T02:52:13;1.50;99.90
1391;DHT22;690;51.454;7.194;2023-02-27T02:54:52;1.50;99.90
1391;DHT22;690;51.454;7.194;2023-02-27T02:57:25;1.50;99.90
1391;DHT22;690;51.454;7.194;2023-02-27T02:59:58;1.50;99.90
1391;DHT22;690;51.454;7.194;2023-02-27T03:02:33;1.50;99.90
1391;DHT22;690;51.454;7.194;2023-02-27T03:05:05;1.50;99.90
1391;DHT22;690;51.454;7.194;2023-02-27T03:07:37;1.50;99.90
1391;DHT22;690;51.454;7.194;2023-02-27T03:10:09;1.40;99.90
1391;DHT22;690;51.454;7.194;2023-02-27T03:12:40;1.40;99.90
1391;DHT22;690;51.454;7.194;2023-02-27T03:15:12;1.40;99.90
1391;DHT22;690;51.454;7.194;2023-02-27T03:17:43;1.40;99.90
1391;DHT22;690;51.454;7.194;2023-02-27T03:20:17;1.30;99.90
1391;DHT22;690;51.454;7.194;2023-02-27T03:22:47;1.30;99.90
1391;DHT22;690;51.454;7.194;2023-02-27T03:25:19;1.30;99.90
1391;DHT22;690;51.454;7.194;2023-02-27T03:27:50;1.20;99.90
1391;DHT22;690;51.454;7.194;2023-02-27T03:30:24;1.20;99.90
1391;DHT22;690;51.454;7.194;2023-02-27T03:32:54;1.20;99.90
1391;DHT22;690;51.454;7.194;2023-02-27T03:35:30;1.20;99.90
1391;DHT22;690;51.454;7.194;2023-02-27T03:38:00;1.20;99.90
1391;DHT22;690;51.454;7.194;2023-02-27T03:40:33;1.20;99.90
1391;DHT22;690;51.454;7.194;2023-02-27T03:43:18;1.20;99.90
1391;DHT22;690;51.454;7.194;2023-02-27T03:45:53;1.10;99.90
1391;DHT22;690;51.454;7.194;2023-02-27T03:48:22;1.10;99.90
1391;DHT22;690;51.454;7.194;2023-02-27T03:50:52;1.10;99.90
1391;DHT22;690;51.454;7.194;2023-02-27T03:53:24;1.10;99.90
1391;DHT22;690;51.454;7.194;2023-02-27T03:55:55;1.10;1.00
1391;DHT22;690;51.454;7.194;2023-02-27T03:58:24;1.10;1.00
1391;DHT22;690;51.454;7.194;2023-02-27T04:00:51;1.10;1.00
1391;DHT22;690;51.454;7.194;2023-02-27T04:03:18;1.10;1.00
1391;DHT22;690;51.454;7.194;2023-02-27T04:05:45;1.10;1.00
1391;DHT22;690;51.454;7.194;2023-02-27T04:08:36;1.10;1.00
1391;DHT22;690;51.454;7.194;2023-02-27T04:11:45;1.00;1.00
1391;DHT22;690;51.454;7.194;2023-02-27T04:14:34;1.00;1.00
1391;DHT22;690;51.454;7.194;2023-02-27T04:20:05;1.00;1.00
1391;DHT22;690;51.454;7.194;2023-02-27T04:22:41;1.00;1.00
1391;DHT22;690;51.454;7.194;2023-02-27T04:25:22;0.90;1.00
1391;DHT22;690;51.454;7.194;2023-02-27T04:27:56;0.90;1.00
1391;DHT22;690;51.454;7.194;2023-02-27T04:30:28;0.90;1.00
1391;DHT22;690;51.454;7.194;2023-02-27T04:33:06;0.90;1.00
1391;DHT22;690;51.454;7.194;2023-02-27T04:35:37;0.90;1.00
1391;DHT22;690;51.454;7.194;2023-02-27T04:38:13;0.90;1.00
1391;DHT22;690;51.454;7.194;2023-02-27T04:40:45;0.90;1.00
1391;DHT22;690;51.454;7.194;2023-02-27T04:43:15;0.90;1.00
1391;DHT22;690;51.454;7.194;2023-02-27T04:45:45;0.90;1.00
1391;DHT22;690;51.454;7.194;2023-02-27T04:48:17;0.90;1.00
1391;DHT22;690;51.454;7.194;2023-02-27T04:50:48;0.80;1.00
1391;DHT22;690;51.454;7.194;2023-02-27T04:53:20;0.80;1.00
1391;DHT22;690;51.454;7.194;2023-02-27T04:55:50;0.80;1.00
1391;DHT22;690;51.454;7.194;2023-02-27T04:58:23;0.80;1.00
1391;DHT22;690;51.454;7.194;2023-02-27T05:00:55;0.80;1.00
1391;DHT22;690;51.454;7.194;2023-02-27T05:03:25;0.80;1.00
1391;DHT22;690;51.454;7.194;2023-02-27T05:05:56;0.70;1.00
1391;DHT22;690;51.454;7.194;2023-02-27T05:08:28;0.70;1.00
1391;DHT22;690;51.454;7.194;2023-02-27T05:11:01;0.70;1.00
1391;DHT22;690;51.454;7.194;2023-02-27T05:13:32;0.70;1.00
1391;DHT22;690;51.454;7.194;2023-02-27T05:16:05;0.70;1.00
1391;DHT22;690;51.454;7.194;2023-02-27T05:18:35;0.70;1.00
1391;DHT22;690;51.454;7.194;2023-02-27T05:21:09;0.70;1.00
1391;DHT22;690;51.454;7.194;2023-02-27T05:23:48;0.70;1.00
1391;DHT22;690;51.454;7.194;2023-02-27T05:26:26;0.70;1.00
1391;DHT22;690;51.454;7.194;2023-02-27T05:29:02;0.60;1.00
1391;DHT22;690;51.454;7.194;2023-02-27T05:31:36;0.60;1.00
1391;DHT22;690;51.454;7.194;2023-02-27T05:34:10;0.60;1.00
1391;DHT22;690;51.454;7.194;2023-02-27T05:36:43;0.60;1.00
1391;DHT22;690;51.454;7.194;2023-02-27T05:39:12;0.60;1.00
1391;DHT22;690;51.454;7.194;2023-02-27T05:41:45;0.60;1.00
1391;DHT22;690;51.454;7.194;2023-02-27T05:44:18;0.60;1.00
1391;DHT22;690;51.454;7.194;2023-02-27T05:46:51;0.60;1.00
1391;DHT22;690;51.454;7.194;2023-02-27T05:49:22;0.60;1.00
1391;DHT22;690;51.454;7.194;2023-02-27T05:51:53;0.60;1.00
1391;DHT22;690;51.454;7.194;2023-02-27T05:54:25;0.60;1.00
1391;DHT22;690;51.454;7.194;2023-02-27T05:56:56;0.60;1.00
1391;DHT22;690;51.454;7.194;2023-02-27T05:59:28;0.60;1.00
1391;DHT22;690;51.454;7.194;2023-02-27T06:01:56;0.60;1.00
1391;DHT22;690;51.454;7.194;2023-02-27T06:04:23;0.50;1.00
1391;DHT22;690;51.454;7.194;2023-02-27T06:06:50;0.50;1.00
1391;DHT22;690;51.454;7.194;2023-02-27T06:09:17;0.50;1.00
1391;DHT22;690;51.454;7.194;2023-02-27T06:11:45;0.50;1.00
1391;DHT22;690;51.454;7.194;2023-02-27T06:14:12;0.50;1.00
1391;DHT22;690;51.454;7.194;2023-02-27T06:16:40;0.50;1.00
1391;DHT22;690;51.454;7.194;2023-02-27T06:19:07;0.50;1.00
1391;DHT22;690;51.454;7.194;2023-02-27T06:21:34;0.50;1.00
1391;DHT22;690;51.454;7.194;2023-02-27T06:24:01;0.50;1.00
1391;DHT22;690;51.454;7.194;2023-02-27T06:26:28;0.40;1.00
1391;DHT22;690;51.454;7.194;2023-02-27T06:28:54;0.40;1.00
1391;DHT22;690;51.454;7.194;2023-02-27T06:31:21;0.40;1.00
1391;DHT22;690;51.454;7.194;2023-02-27T06:33:49;0.50;1.00
1391;DHT22;690;51.454;7.194;2023-02-27T06:36:16;0.50;1.00
1391;DHT22;690;51.454;7.194;2023-02-27T06:38:43;0.50;1.00
1391;DHT22;690;51.454;7.194;2023-02-27T06:41:10;0.50;1.00
1391;DHT22;690;51.454;7.194;2023-02-27T06:43:37;0.50;1.00
1391;DHT22;690;51.454;7.194;2023-02-27T06:46:04;0.50;1.00
1391;DHT22;690;51.454;7.194;2023-02-27T06:48:31;0.60;1.00
1391;DHT22;690;51.454;7.194;2023-02-27T06:50:59;0.60;1.00
1391;DHT22;690;51.454;7.194;2023-02-27T06:53:26;0.60;1.00
1391;DHT22;690;51.454;7.194;2023-02-27T06:55:53;0.60;1.00
1391;DHT22;690;51.454;7.194;2023-02-27T06:58:20;0.60;1.00
1391;DHT22;690;51.454;7.194;2023-02-27T07:00:49;0.60;1.00
1391;DHT22;690;51.454;7.194;2023-02-27T07:03:16;0.60;1.00
1391;DHT22;690;51.454;7.194;2023-02-27T07:05:43;0.60;1.00
1391;DHT22;690;51.454;7.194;2023-02-27T07:08:11;0.60;1.00
1391;DHT22;690;51.454;7.194;2023-02-27T07:10:42;0.70;1.00
1391;DHT22;690;51.454;7.194;2023-02-27T07:13:11;0.70;1.00
1391;DHT22;690;51.454;7.194;2023-02-27T07:15:38;0.80;1.00
1391;DHT22;690;51.454;7.194;2023-02-27T07:18:06;0.80;1.00
1391;DHT22;690;51.454;7.194;2023-02-27T07:20:33;0.90;1.00
1391;DHT22;690;51.454;7.194;2023-02-27T07:23:00;0.90;1.00
1391;DHT22;690;51.454;7.194;2023-02-27T07:25:28;1.00;1.00
1391;DHT22;690;51.454;7.194;2023-02-27T07:27:55;1.00;1.00
1391;DHT22;690;51.454;7.194;2023-02-27T07:30:21;1.00;1.00
1391;DHT22;690;51.454;7.194;2023-02-27T07:32:48;1.10;1.00
1391;DHT22;690;51.454;7.194;2023-02-27T07:35:16;1.10;1.00
1391;DHT22;690;51.454;7.194;2023-02-27T07:37:43;1.10;1.00
1391;DHT22;690;51.454;7.194;2023-02-27T07:40:10;1.20;1.00
1391;DHT22;690;51.454;7.194;2023-02-27T07:42:39;1.20;1.00
1391;DHT22;690;51.454;7.194;2023-02-27T07:45:07;1.30;1.00
1391;DHT22;690;51.454;7.194;2023-02-27T07:47:34;1.30;1.00
1391;DHT22;690;51.454;7.194;2023-02-27T07:50:01;1.30;1.00
1391;DHT22;690;51.454;7.194;2023-02-27T07:52:29;1.40;1.00
1391;DHT22;690;51.454;7.194;2023-02-27T07:54:56;1.50;1.00
1391;DHT22;690;51.454;7.194;2023-02-27T07:57:22;1.50;1.00
1391;DHT22;690;51.454;7.194;2023-02-27T07:59:51;1.60;1.00
1391;DHT22;690;51.454;7.194;2023-02-27T08:02:18;1.60;1.00
1391;DHT22;690;51.454;7.194;2023-02-27T08:04:44;1.70;1.00
1391;DHT22;690;51.454;7.194;2023-02-27T08:07:11;1.80;1.00
1391;DHT22;690;51.454;7.194;2023-02-27T08:09:38;1.80;1.00
1391;DHT22;690;51.454;7.194;2023-02-27T08:12:05;1.90;1.00
1391;DHT22;690;51.454;7.194;2023-02-27T08:14:32;1.90;1.00
1391;DHT22;690;51.454;7.194;2023-02-27T08:17:00;2.00;1.00
1391;DHT22;690;51.454;7.194;2023-02-27T08:19:27;2.10;1.00
1391;DHT22;690;51.454;7.194;2023-02-27T08:21:54;2.10;1.00
1391;DHT22;690;51.454;7.194;2023-02-27T08:24:21;2.20;1.00
1391;DHT22;690;51.454;7.194;2023-02-27T08:26:48;2.20;1.00
1391;DHT22;690;51.454;7.194;2023-02-27T08:29:15;2.30;1.00
1391;DHT22;690;51.454;7.194;2023-02-27T08:31:41;2.30;1.00
1391;DHT22;690;51.454;7.194;2023-02-27T08:34:10;2.40;1.00
1391;DHT22;690;51.454;7.194;2023-02-27T08:36:37;2.40;1.00
1391;DHT22;690;51.454;7.194;2023-02-27T08:39:04;2.50;1.00
1391;DHT22;690;51.454;7.194;2023-02-27T08:41:31;2.50;1.00
1391;DHT22;690;51.454;7.194;2023-02-27T08:43:58;2.60;1.00
1391;DHT22;690;51.454;7.194;2023-02-27T08:46:25;2.70;1.00
1391;DHT22;690;51.454;7.194;2023-02-27T08:48:52;2.80;1.00
1391;DHT22;690;51.454;7.194;2023-02-27T08:51:20;2.80;1.00
1391;DHT22;690;51.454;7.194;2023-02-27T08:53:47;2.90;1.00
1391;DHT22;690;51.454;7.194;2023-02-27T08:56:14;3.00;1.00
1391;DHT22;690;51.454;7.194;2023-02-27T08:58:41;3.00;1.00
1391;DHT22;690;51.454;7.194;2023-02-27T09:01:08;3.10;1.00
1391;DHT22;690;51.454;7.194;2023-02-27T09:03:34;3.10;1.00
1391;DHT22;690;51.454;7.194;2023-02-27T09:06:01;3.20;1.00
1391;DHT22;690;51.454;7.194;2023-02-27T09:08:31;3.20;1.00
1391;DHT22;690;51.454;7.194;2023-02-27T09:10:58;3.30;1.00
1391;DHT22;690;51.454;7.194;2023-02-27T09:13:25;3.30;1.00
1391;DHT22;690;51.454;7.194;2023-02-27T09:15:53;3.40;1.00
1391;DHT22;690;51.454;7.194;2023-02-27T09:18:20;3.50;1.00
1391;DHT22;690;51.454;7.194;2023-02-27T09:20:48;3.60;1.00
1391;DHT22;690;51.454;7.194;2023-02-27T09:23:15;3.70;1.00
1391;DHT22;690;51.454;7.194;2023-02-27T09:25:44;3.80;1.00
1391;DHT22;690;51.454;7.194;2023-02-27T09:28:12;3.90;1.00
1391;DHT22;690;51.454;7.194;2023-02-27T09:30:39;4.00;1.00
1391;DHT22;690;51.454;7.194;2023-02-27T09:33:05;4.00;1.00
1391;DHT22;690;51.454;7.194;2023-02-27T09:35:32;4.20;1.00
1391;DHT22;690;51.454;7.194;2023-02-27T09:37:59;4.30;1.00
1391;DHT22;690;51.454;7.194;2023-02-27T09:40:28;4.30;1.00
1391;DHT22;690;51.454;7.194;2023-02-27T09:42:58;4.30;1.00
1391;DHT22;690;51.454;7.194;2023-02-27T09:45:28;4.40;1.00
1391;DHT22;690;51.454;7.194;2023-02-27T09:47:59;4.50;1.00
1391;DHT22;690;51.454;7.194;2023-02-27T09:50:37;4.50;1.00
1391;DHT22;690;51.454;7.194;2023-02-27T09:53:08;4.60;1.00
1391;DHT22;690;51.454;7.194;2023-02-27T09:55:39;4.70;1.00
1391;DHT22;690;51.454;7.194;2023-02-27T09:58:23;4.70;1.00
1391;DHT22;690;51.454;7.194;2023-02-27T10:00:56;4.90;1.00
1391;DHT22;690;51.454;7.194;2023-02-27T10:03:42;5.00;1.00
1391;DHT22;690;51.454;7.194;2023-02-27T10:06:20;5.00;1.00
1391;DHT22;690;51.454;7.194;2023-02-27T10:08:58;5.10;1.00
1391;DHT22;690;51.454;7.194;2023-02-27T10:11:41;5.10;1.00
1391;DHT22;690;51.454;7.194;2023-02-27T10:14:16;5.20;1.00
1391;DHT22;690;51.454;7.194;2023-02-27T10:16:45;5.30;1.00
1391;DHT22;690;51.454;7.194;2023-02-27T10:19:16;5.30;1.00
1391;DHT22;690;51.454;7.194;2023-02-27T10:21:47;5.40;1.00
1391;DHT22;690;51.454;7.194;2023-02-27T10:24:20;5.40;99.90
1391;DHT22;690;51.454;7.194;2023-02-27T10:26:53;5.50;99.90
1391;DHT22;690;51.454;7.194;2023-02-27T10:29:27;5.50;99.90
1391;DHT22;690;51.454;7.194;2023-02-27T10:31:59;5.60;99.90
1391;DHT22;690;51.454;7.194;2023-02-27T10:34:28;5.60;99.90
1391;DHT22;690;51.454;7.194;2023-02-27T10:36:59;5.70;99.90
1391;DHT22;690;51.454;7.194;2023-02-27T10:39:26;5.70;99.90
1391;DHT22;690;51.454;7.194;2023-02-27T10:42:01;5.70;99.90
1391;DHT22;690;51.454;7.194;2023-02-27T10:44:30;5.80;99.90
1391;DHT22;690;51.454;7.194;2023-02-27T10:46:57;5.90;99.90
1391;DHT22;690;51.454;7.194;2023-02-27T10:49:24;6.00;99.90
1391;DHT22;690;51.454;7.194;2023-02-27T10:52:12;6.10;99.90
1391;DHT22;690;51.454;7.194;2023-02-27T10:54:40;6.20;99.90
1391;DHT22;690;51.454;7.194;2023-02-27T10:57:25;6.20;99.90
1391;DHT22;690;51.454;7.194;2023-02-27T10:59:55;6.40;99.90
1391;DHT22;690;51.454;7.194;2023-02-27T11:02:25;6.50;99.90
1391;DHT22;690;51.454;7.194;2023-02-27T11:04:55;6.70;99.90
1391;DHT22;690;51.454;7.194;2023-02-27T11:07:28;6.80;99.90
1391;DHT22;690;51.454;7.194;2023-02-27T11:10:14;7.00;99.90
1391;DHT22;690;51.454;7.194;2023-02-27T11:12:42;7.10;99.90
1391;DHT22;690;51.454;7.194;2023-02-27T11:15:25;7.30;99.90
1391;DHT22;690;51.454;7.194;2023-02-27T11:17:52;7.40;99.90
1391;DHT22;690;51.454;7.194;2023-02-27T11:20:38;7.50;99.90
1391;DHT22;690;51.454;7.194;2023-02-27T11:23:14;7.60;99.90
1391;DHT22;690;51.454;7.194;2023-02-27T11:25:41;7.70;99.90
1391;DHT22;690;51.454;7.194;2023-02-27T11:28:13;7.80;99.90
1391;DHT22;690;51.454;7.194;2023-02-27T11:30:43;7.80;99.90
1391;DHT22;690;51.454;7.194;2023-02-27T11:33:17;7.80;99.90
1391;DHT22;690;51.454;7.194;2023-02-27T11:35:49;7.70;99.90
1391;DHT22;690;51.454;7.194;2023-02-27T11:38:19;7.50;99.90
1391;DHT22;690;51.454;7.194;2023-02-27T11:40:51;7.40;99.90
1391;DHT22;690;51.454;7.194;2023-02-27T11:43:20;7.40;99.90
1391;DHT22;690;51.454;7.194;2023-02-27T11:45:55;7.40;99.90
1391;DHT22;690;51.454;7.194;2023-02-27T11:48:26;7.40;99.90
1391;DHT22;690;51.454;7.194;2023-02-27T11:51:15;7.40;99.90
1391;DHT22;690;51.454;7.194;2023-02-27T11:56:38;7.50;99.90
1391;DHT22;690;51.454;7.194;2023-02-27T11:59:16;7.60;99.90
1391;DHT22;690;51.454;7.194;2023-02-27T12:01:52;7.60;99.90
1391;DHT22;690;51.454;7.194;2023-02-27T12:04:23;7.60;99.90
1391;DHT22;690;51.454;7.194;2023-02-27T12:06:56;7.60;99.90
1391;DHT22;690;51.454;7.194;2023-02-27T12:09:37;7.60;99.90
1391;DHT22;690;51.454;7.194;2023-02-27T12:12:12;7.50;99.90
1391;DHT22;690;51.454;7.194;2023-02-27T12:14:44;7.50;99.90
1391;DHT22;690;51.454;7.194;2023-02-27T12:17:17;7.60;99.90
1391;DHT22;690;51.454;7.194;2023-02-27T12:19:59;7.70;99.90
1391;DHT22;690;51.454;7.194;2023-02-27T12:22:32;7.70;99.90
1391;DHT22;690;51.454;7.194;2023-02-27T12:25:05;7.60;99.90
1391;DHT22;690;51.454;7.194;2023-02-27T12:27:42;7.50;99.90
1391;DHT22;690;51.454;7.194;2023-02-27T12:30:15;7.50;99.90
1391;DHT22;690;51.454;7.194;2023-02-27T12:32:48;7.60;99.90
1391;DHT22;690;51.454;7.194;2023-02-27T12:35:20;7.60;99.90
1391;DHT22;690;51.454;7.194;2023-02-27T12:37:48;7.70;99.90
1391;DHT22;690;51.454;7.194;2023-02-27T12:40:17;7.80;99.90
1391;DHT22;690;51.454;7.194;2023-02-27T12:42:57;8.00;99.90
1391;DHT22;690;51.454;7.194;2023-02-27T12:45:47;8.20;99.90
1391;DHT22;690;51.454;7.194;2023-02-27T12:48:26;8.20;99.90
1391;DHT22;690;51.454;7.194;2023-02-27T12:51:02;8.20;99.90
1391;DHT22;690;51.454;7.194;2023-02-27T12:53:47;8.30;99.90
1391;DHT22;690;51.454;7.194;2023-02-27T12:56:18;8.30;99.90
1391;DHT22;690;51.454;7.194;2023-02-27T12:58:51;8.30;99.90
1391;DHT22;690;51.454;7.194;2023-02-27T13:01:33;8.30;99.90
1391;DHT22;690;51.454;7.194;2023-02-27T13:04:09;8.10;99.90
1391;DHT22;690;51.454;7.194;2023-02-27T13:06:41;8.10;99.90
1391;DHT22;690;51.454;7.194;2023-02-27T13:09:23;8.00;99.90
1391;DHT22;690;51.454;7.194;2023-02-27T13:11:59;8.00;99.90
1391;DHT22;690;51.454;7.194;2023-02-27T13:14:35;8.00;99.90
1391;DHT22;690;51.454;7.194;2023-02-27T13:17:11;8.00;99.90
1391;DHT22;690;51.454;7.194;2023-02-27T13:19:44;8.00;99.90
1391;DHT22;690;51.454;7.194;2023-02-27T13:22:16;8.00;99.90
1391;DHT22;690;51.454;7.194;2023-02-27T13:24:49;8.10;99.90
1391;DHT22;690;51.454;7.194;2023-02-27T13:27:21;8.10;99.90
1391;DHT22;690;51.454;7.194;2023-02-27T13:29:58;8.00;99.90
1391;DHT22;690;51.454;7.194;2023-02-27T13:32:38;8.00;99.90
1391;DHT22;690;51.454;7.194;2023-02-27T13:35:16;7.90;99.90
1391;DHT22;690;51.454;7.194;2023-02-27T13:37:49;8.00;99.90
1391;DHT22;690;51.454;7.194;2023-02-27T13:40:29;8.10;99.90
1391;DHT22;690;51.454;7.194;2023-02-27T13:42:59;8.30;99.90
1391;DHT22;690;51.454;7.194;2023-02-27T13:46:00;8.40;99.90
1391;DHT22;690;51.454;7.194;2023-02-27T13:48:50;8.50;99.90
1391;DHT22;690;51.454;7.194;2023-02-27T13:51:47;8.80;99.90
1391;DHT22;690;51.454;7.194;2023-02-27T13:54:19;8.90;99.90
1391;DHT22;690;51.454;7.194;2023-02-27T13:56:48;9.00;99.90
1391;DHT22;690;51.454;7.194;2023-02-27T13:59:20;9.10;99.90
1391;DHT22;690;51.454;7.194;2023-02-27T14:01:53;9.30;99.90
1391;DHT22;690;51.454;7.194;2023-02-27T14:04:23;9.30;99.90
1391;DHT22;690;51.454;7.194;2023-02-27T14:06:57;9.20;99.90
1391;DHT22;690;51.454;7.194;2023-02-27T14:09:25;9.00;99.90
1391;DHT22;690;51.454;7.194;2023-02-27T14:11:59;8.80;99.90
1391;DHT22;690;51.454;7.194;2023-02-27T14:14:42;8.60;99.90
1391;DHT22;690;51.454;7.194;2023-02-27T14:17:12;8.50;99.90
1391;DHT22;690;51.454;7.194;2023-02-27T14:19:51;8.30;99.90
1391;DHT22;690;51.454;7.194;2023-02-27T14:22:42;8.20;99.90
1391;DHT22;690;51.454;7.194;2023-02-27T14:25:17;8.20;99.90
1391;DHT22;690;51.454;7.194;2023-02-27T14:27:50;8.30;99.90
1391;DHT22;690;51.454;7.194;2023-02-27T14:30:33;8.40;99.90
1391;DHT22;690;51.454;7.194;2023-02-27T14:33:06;8.60;99.90
1391;DHT22;690;51.454;7.194;2023-02-27T14:35:37;8.80;99.90
1391;DHT22;690;51.454;7.194;2023-02-27T14:38:10;9.00;99.90
1391;DHT22;690;51.454;7.194;2023-02-27T14:40:41;9.10;99.90
1391;DHT22;690;51.454;7.194;2023-02-27T14:43:15;9.10;99.90
1391;DHT22;690;51.454;7.194;2023-02-27T14:45:44;9.20;99.90
1391;DHT22;690;51.454;7.194;2023-02-27T14:48:26;9.20;99.90
1391;DHT22;690;51.454;7.194;2023-02-27T14:50:53;9.20;99.90
1391;DHT22;690;51.454;7.194;2023-02-27T14:53:25;9.00;99.90
1391;DHT22;690;51.454;7.194;2023-02-27T14:55:53;8.80;99.90
1391;DHT22;690;51.454;7.194;2023-02-27T14:58:21;8.70;99.90
1391;DHT22;690;51.454;7.194;2023-02-27T15:00:57;8.50;99.90
1391;DHT22;690;51.454;7.194;2023-02-27T15:03:31;8.40;99.90
1391;DHT22;690;51.454;7.194;2023-02-27T15:06:01;8.40;99.90
1391;DHT22;690;51.454;7.194;2023-02-27T15:08:32;8.40;99.90
1391;DHT22;690;51.454;7.194;2023-02-27T15:11:00;8.40;99.90
1391;DHT22;690;51.454;7.194;2023-02-27T15:13:29;8.50;99.90
1391;DHT22;690;51.454;7.194;2023-02-27T15:16:29;8.50;99.90
1391;DHT22;690;51.454;7.194;2023-02-27T15:19:00;8.60;99.90
1391;DHT22;690;51.454;7.194;2023-02-27T15:21:30;8.70;99.90
1391;DHT22;690;51.454;7.194;2023-02-27T15:24:01;8.80;99.90
1391;DHT22;690;51.454;7.194;2023-02-27T15:26:33;8.90;99.90
1391;DHT22;690;51.454;7.194;2023-02-27T15:29:03;9.00;99.90
1391;DHT22;690;51.454;7.194;2023-02-27T15:31:30;9.00;99.90
1391;DHT22;690;51.454;7.194;2023-02-27T15:33:59;8.90;99.90
1391;DHT22;690;51.454;7.194;2023-02-27T15:36:29;8.80;99.90
1391;DHT22;690;51.454;7.194;2023-02-27T15:39:14;8.80;99.90
1391;DHT22;690;51.454;7.194;2023-02-27T15:41:43;8.90;99.90
1391;DHT22;690;51.454;7.194;2023-02-27T15:44:12;8.90;99.90
1391;DHT22;690;51.454;7.194;2023-02-27T15:46:40;9.00;99.90
1391;DHT22;690;51.454;7.194;2023-02-27T15:49:08;9.10;99.90
1391;DHT22;690;51.454;7.194;2023-02-27T15:51:38;9.10;99.90
1391;DHT22;690;51.454;7.194;2023-02-27T15:54:12;9.10;99.90
1391;DHT22;690;51.454;7.194;2023-02-27T15:56:40;9.10;99.90
1391;DHT22;690;51.454;7.194;2023-02-27T15:59:11;9.10;99.90
1391;DHT22;690;51.454;7.194;2023-02-27T16:01:41;9.00;99.90
1391;DHT22;690;51.454;7.194;2023-02-27T16:04:15;9.00;99.90
1391;DHT22;690;51.454;7.194;2023-02-27T16:06:47;9.00;99.90
1391;DHT22;690;51.454;7.194;2023-02-27T16:09:22;8.90;99.90
1391;DHT22;690;51.454;7.194;2023-02-27T16:12:09;8.90;99.90
1391;DHT22;690;51.454;7.194;2023-02-27T16:14:38;8.80;99.90
1391;DHT22;690;51.454;7.194;2023-02-27T16:17:25;8.70;99.90
1391;DHT22;690;51.454;7.194;2023-02-27T16:19:52;8.60;99.90
1391;DHT22;690;51.454;7.194;2023-02-27T16:22:20;8.60;99.90
1391;DHT22;690;51.454;7.194;2023-02-27T16:24:49;8.40;99.90
1391;DHT22;690;51.454;7.194;2023-02-27T16:27:22;8.30;99.90
1391;DHT22;690;51.454;7.194;2023-02-27T16:29:50;8.20;99.90
1391;DHT22;690;51.454;7.194;2023-02-27T16:32:22;8.10;99.90
1391;DHT22;690;51.454;7.194;2023-02-27T16:34:51;8.00;99.90
1391;DHT22;690;51.454;7.194;2023-02-27T16:37:30;7.90;99.90
1391;DHT22;690;51.454;7.194;2023-02-27T16:40:02;7.80;99.90
1391;DHT22;690;51.454;7.194;2023-02-27T16:42:30;7.70;99.90
1391;DHT22;690;51.454;7.194;2023-02-27T16:44:57;7.70;99.90
1391;DHT22;690;51.454;7.194;2023-02-27T16:47:24;7.60;99.90
1391;DHT22;690;51.454;7.194;2023-02-27T16:49:53;7.40;99.90
1391;DHT22;690;51.454;7.194;2023-02-27T16:52:20;7.40;99.90
1391;DHT22;690;51.454;7.194;2023-02-27T16:54:47;7.30;99.90
1391;DHT22;690;51.454;7.194;2023-02-27T16:57:15;7.30;99.90
1391;DHT22;690;51.454;7.194;2023-02-27T16:59:43;7.30;99.90
1391;DHT22;690;51.454;7.194;2023-02-27T17:02:12;7.20;99.90
1391;DHT22;690;51.454;7.194;2023-02-27T17:04:39;7.10;99.90
1391;DHT22;690;51.454;7.194;2023-02-27T17:07:10;7.10;99.90
1391;DHT22;690;51.454;7.194;2023-02-27T17:09:40;7.00;99.90
1391;DHT22;690;51.454;7.194;2023-02-27T17:12:07;7.00;99.90
1391;DHT22;690;51.454;7.194;2023-02-27T17:14:35;6.90;99.90
1391;DHT22;690;51.454;7.194;2023-02-27T17:17:03;6.90;99.90